createdAt,value
2023-05-09T00:02:12.053Z,2.60
2023-05-09T00:04:38.659Z,2.90
2023-05-09T00:07:05.261Z,2.42
2023-05-09T00:09:31.696Z,2.42
2023-05-09T00:11:58.262Z,2.95
2023-05-09T00:14:24.946Z,2.50
2023-05-09T00:16:51.549Z,2.80
2023-05-09T00:19:19.126Z,2.80
2023-05-09T00:21:45.937Z,2.60
2023-05-09T00:24:12.791Z,2.83
2023-05-09T00:26:39.244Z,2.78
2023-05-09T00:29:06.544Z,3.10
2023-05-09T00:31:33.232Z,3.20
2023-05-09T00:33:59.725Z,2.97
2023-05-09T00:36:26.349Z,3.00
2023-05-09T00:38:52.897Z,2.88
2023-05-09T00:41:19.340Z,3.22
2023-05-09T00:43:45.923Z,3.13
2023-05-09T00:46:12.697Z,3.30
2023-05-09T00:48:39.354Z,3.53
2023-05-09T00:51:06.150Z,2.88
2023-05-09T00:53:32.735Z,3.40
2023-05-09T00:56:00.448Z,3.28
2023-05-09T00:58:27.310Z,3.53
2023-05-09T01:00:53.807Z,3.42
2023-05-09T01:03:20.534Z,3.40
2023-05-09T02:05:02.410Z,4.00
2023-05-09T02:07:30.130Z,4.40
2023-05-09T02:10:01.448Z,4.28
2023-05-09T02:12:28.327Z,4.60
2023-05-09T02:14:54.925Z,4.20
2023-05-09T02:17:21.585Z,4.50
2023-05-09T02:19:50.473Z,4.10
2023-05-09T02:22:17.137Z,4.13
2023-05-09T02:24:45.189Z,4.10
2023-05-09T02:27:12.792Z,4.25
2023-05-09T02:29:49.227Z,4.68
2023-05-09T02:32:20.804Z,4.50
2023-05-09T02:34:50.194Z,4.78
2023-05-09T02:37:18.611Z,4.43
2023-05-09T02:39:45.417Z,4.75
2023-05-09T02:42:15.761Z,4.00
2023-05-09T02:44:42.366Z,4.30
2023-05-09T02:47:09.041Z,4.80
2023-05-09T02:49:35.831Z,4.65
2023-05-09T02:52:04.235Z,4.82
2023-05-09T02:54:30.830Z,4.35
2023-05-09T02:56:57.329Z,4.82
2023-05-09T02:59:23.864Z,4.70
2023-05-09T03:01:50.640Z,4.88
2023-05-09T03:04:18.114Z,4.97
2023-05-09T03:06:45.003Z,4.60
2023-05-09T03:09:12.247Z,4.60
2023-05-09T03:11:39.203Z,4.78
2023-05-09T03:14:06.254Z,4.40
2023-05-09T03:16:32.754Z,4.40
2023-05-09T03:19:01.140Z,4.63
2023-05-09T03:21:28.705Z,4.28
2023-05-09T03:23:56.051Z,5.07
2023-05-09T03:26:23.103Z,4.82
2023-05-09T03:28:49.581Z,5.00
2023-05-09T03:31:16.464Z,4.82
2023-05-09T03:33:43.179Z,4.60
2023-05-09T03:36:09.917Z,4.90
2023-05-09T03:38:38.910Z,4.82
2023-05-09T03:41:07.909Z,4.78
2023-05-09T03:43:34.457Z,5.50
2023-05-09T03:46:00.982Z,4.88
2023-05-09T03:48:27.436Z,5.43
2023-05-09T03:50:54.023Z,5.85
2023-05-09T03:53:24.240Z,5.13
2023-05-09T03:55:52.369Z,5.85
2023-05-09T03:58:19.953Z,5.05
2023-05-09T04:00:47.088Z,5.10
2023-05-09T04:03:19.796Z,4.45
2023-05-09T04:05:48.910Z,4.95
2023-05-09T04:08:28.946Z,5.45
2023-05-09T04:10:55.553Z,4.75
2023-05-09T04:13:23.593Z,4.82
2023-05-09T04:15:50.924Z,5.55
2023-05-09T04:18:17.531Z,5.65
2023-05-09T04:20:44.597Z,5.07
2023-05-09T04:23:11.215Z,5.15
2023-05-09T04:25:38.181Z,4.97
2023-05-09T04:28:04.936Z,5.25
2023-05-09T04:30:31.655Z,6.80
2023-05-09T04:32:58.794Z,5.60
2023-05-09T04:35:27.544Z,5.90
2023-05-09T04:37:54.649Z,4.88
2023-05-09T04:40:22.257Z,4.97
2023-05-09T04:42:54.965Z,5.57
2023-05-09T04:45:25.252Z,5.65
2023-05-09T04:47:51.871Z,5.50
2023-05-09T04:50:18.853Z,4.70
2023-05-09T04:52:45.360Z,5.45
2023-05-09T04:55:12.381Z,5.22
2023-05-09T04:57:43.169Z,4.88
2023-05-09T05:00:11.871Z,5.32
2023-05-09T05:02:39.259Z,4.88
2023-05-09T05:05:11.995Z,4.95
2023-05-09T05:07:44.340Z,5.50
2023-05-09T05:10:14.852Z,4.90
2023-05-09T05:12:46.066Z,4.38
2023-05-09T05:15:14.252Z,5.00
2023-05-09T05:17:43.606Z,4.80
2023-05-09T05:20:10.713Z,4.47
2023-05-09T05:22:41.524Z,4.57
2023-05-09T05:25:09.036Z,5.07
2023-05-09T05:27:38.214Z,4.70
2023-05-09T05:30:07.657Z,5.28
2023-05-09T05:32:34.458Z,5.15
2023-05-09T05:35:02.549Z,4.82
2023-05-09T05:37:29.510Z,4.88
2023-05-09T05:39:56.155Z,5.38
2023-05-09T05:42:23.421Z,4.80
2023-05-09T05:44:50.295Z,4.60
2023-05-09T05:47:17.213Z,4.65
2023-05-09T05:49:44.302Z,4.28
2023-05-09T05:52:10.778Z,4.30
2023-05-09T05:54:37.454Z,4.30
2023-05-09T05:57:03.952Z,3.75
2023-05-09T05:59:30.597Z,4.03
2023-05-09T06:01:57.571Z,4.03
2023-05-09T06:04:24.903Z,4.45
2023-05-09T06:06:51.492Z,3.90
2023-05-09T06:09:17.965Z,3.70
2023-05-09T06:11:44.440Z,3.58
2023-05-09T06:14:11.242Z,3.50
2023-05-09T06:16:37.873Z,3.10
2023-05-09T06:19:04.622Z,3.75
2023-05-09T06:21:31.174Z,3.70
2023-05-09T06:24:09.936Z,3.15
2023-05-09T06:26:41.230Z,3.28
2023-05-09T06:29:08.151Z,3.42
2023-05-09T06:31:39.177Z,3.40
2023-05-09T06:34:06.114Z,3.08
2023-05-09T06:36:33.413Z,3.40
2023-05-09T06:39:01.838Z,3.10
2023-05-09T06:41:28.479Z,3.17
2023-05-09T06:43:55.012Z,2.72
2023-05-09T06:46:21.719Z,2.90
2023-05-09T06:48:48.386Z,2.80
2023-05-09T06:51:14.964Z,3.05
2023-05-09T06:53:41.779Z,3.22
2023-05-09T06:56:08.268Z,3.20
2023-05-09T06:58:34.901Z,3.30
2023-05-09T07:01:01.625Z,3.22
2023-05-09T07:03:28.197Z,3.03
2023-05-09T07:05:56.965Z,3.00
2023-05-09T07:08:23.432Z,3.30
2023-05-09T07:10:50.201Z,3.17
2023-05-09T07:13:16.743Z,2.90
2023-05-09T07:15:43.460Z,3.20
2023-05-09T07:18:10.233Z,3.33
2023-05-09T07:20:36.869Z,3.38
2023-05-09T07:23:04.151Z,3.20
2023-05-09T07:25:30.750Z,3.38
2023-05-09T07:27:57.337Z,3.10
2023-05-09T07:30:25.293Z,3.17
2023-05-09T07:32:52.307Z,3.13
2023-05-09T07:35:19.589Z,2.90
2023-05-09T07:37:46.365Z,2.85
2023-05-09T07:40:13.522Z,2.97
2023-05-09T07:42:41.058Z,3.08
2023-05-09T07:45:08.066Z,3.20
2023-05-09T07:47:34.788Z,2.80
2023-05-09T07:50:01.398Z,2.97
2023-05-09T07:52:28.048Z,3.20
2023-05-09T07:54:54.726Z,3.20
2023-05-09T07:57:21.833Z,3.25
2023-05-09T07:59:48.650Z,3.45
2023-05-09T08:02:15.223Z,3.08
2023-05-09T08:04:41.965Z,3.10
2023-05-09T08:07:09.113Z,2.67
2023-05-09T08:09:38.290Z,2.80
2023-05-09T08:12:05.349Z,3.05
2023-05-09T08:14:31.870Z,2.90
2023-05-09T08:16:58.363Z,2.75
2023-05-09T08:19:26.266Z,2.58
2023-05-09T08:21:54.126Z,2.55
2023-05-09T08:24:21.107Z,2.80
2023-05-09T08:26:47.621Z,2.70
2023-05-09T08:29:14.659Z,2.92
2023-05-09T08:31:41.297Z,2.92
2023-05-09T08:34:08.137Z,3.00
2023-05-09T08:36:34.722Z,2.90
2023-05-09T08:39:01.202Z,2.47
2023-05-09T08:41:30.991Z,2.70
2023-05-09T08:43:57.541Z,2.42
2023-05-09T08:46:30.879Z,2.60
2023-05-09T08:48:58.384Z,2.72
2023-05-09T08:51:25.017Z,2.90
2023-05-09T08:53:52.313Z,3.05
2023-05-09T08:56:19.094Z,3.20
2023-05-09T08:58:45.724Z,3.13
2023-05-09T09:01:14.358Z,3.08
2023-05-09T09:03:47.511Z,3.17
2023-05-09T09:06:14.412Z,3.03
2023-05-09T09:08:42.278Z,3.30
2023-05-09T09:11:12.263Z,3.08
2023-05-09T09:13:41.178Z,2.92
2023-05-09T09:16:14.475Z,3.30
2023-05-09T09:18:41.049Z,3.10
2023-05-09T09:21:09.957Z,3.33
2023-05-09T09:23:40.640Z,2.97
2023-05-09T09:26:07.134Z,2.95
2023-05-09T09:28:33.704Z,3.30
2023-05-09T09:31:00.436Z,2.88
2023-05-09T09:33:28.752Z,3.15
2023-05-09T09:35:56.728Z,3.00
2023-05-09T09:38:26.792Z,3.50
2023-05-09T09:40:55.762Z,3.70
2023-05-09T09:43:32.011Z,3.40
2023-05-09T09:46:05.485Z,3.33
2023-05-09T09:48:34.147Z,3.67
2023-05-09T09:51:10.096Z,3.17
2023-05-09T09:53:40.830Z,3.50
2023-05-09T09:56:08.176Z,3.38
2023-05-09T09:58:34.772Z,3.25
2023-05-09T10:01:08.030Z,3.42
2023-05-09T10:03:42.662Z,3.78
2023-05-09T10:06:14.359Z,3.20
2023-05-09T10:08:42.016Z,3.10
2023-05-09T10:11:09.689Z,3.55
2023-05-09T10:13:37.359Z,3.17
2023-05-09T10:16:05.472Z,3.20
2023-05-09T10:18:32.599Z,3.50
2023-05-09T10:21:04.090Z,3.20
2023-05-09T10:23:32.969Z,3.25
2023-05-09T10:26:22.972Z,3.55
2023-05-09T10:28:54.763Z,3.70
2023-05-09T10:31:31.655Z,3.10
2023-05-09T10:34:02.042Z,3.20
2023-05-09T10:36:28.724Z,2.88
2023-05-09T10:38:55.567Z,3.03
2023-05-09T10:41:23.649Z,3.20
2023-05-09T10:43:50.412Z,3.22
2023-05-09T10:46:17.819Z,3.28
2023-05-09T10:48:45.119Z,3.17
2023-05-09T10:51:13.105Z,3.38
2023-05-09T10:53:50.391Z,3.22
2023-05-09T10:56:29.980Z,3.75
2023-05-09T10:58:57.354Z,3.20
2023-05-09T11:01:37.224Z,3.03
2023-05-09T11:04:11.831Z,3.35
2023-05-09T11:06:41.453Z,3.15
2023-05-09T11:09:28.070Z,3.40
2023-05-09T11:12:05.196Z,3.35
2023-05-09T11:14:44.716Z,3.40
2023-05-09T11:17:20.922Z,3.78
2023-05-09T11:19:47.506Z,3.65
2023-05-09T11:22:26.285Z,3.25
2023-05-09T11:25:05.976Z,3.30
2023-05-09T11:27:42.552Z,3.05
2023-05-09T11:30:14.803Z,3.33
2023-05-09T11:32:55.082Z,3.75
2023-05-09T11:35:23.136Z,3.38
2023-05-09T11:38:03.905Z,3.35
2023-05-09T11:40:31.877Z,3.28
2023-05-09T11:43:00.339Z,3.10
2023-05-09T11:45:31.561Z,2.88
2023-05-09T11:47:58.944Z,3.72
2023-05-09T11:50:25.630Z,3.33
2023-05-09T11:52:53.631Z,3.58
2023-05-09T11:55:25.732Z,3.22
2023-05-09T11:57:54.143Z,3.22
2023-05-09T12:00:23.421Z,3.75
2023-05-09T12:02:51.272Z,3.15
2023-05-09T12:05:20.289Z,3.05
2023-05-09T12:07:47.561Z,3.22
2023-05-09T12:10:16.307Z,3.35
2023-05-09T12:12:44.064Z,2.65
2023-05-09T12:15:11.022Z,3.28
2023-05-09T12:17:38.586Z,3.50
2023-05-09T12:20:05.823Z,2.92
2023-05-09T12:22:33.146Z,2.85
2023-05-09T12:25:05.731Z,2.92
2023-05-09T12:27:33.156Z,2.88
2023-05-09T12:30:08.534Z,3.30
2023-05-09T12:32:36.707Z,3.00
2023-05-09T12:35:03.672Z,2.55
2023-05-09T12:37:34.233Z,2.90
2023-05-09T12:40:04.157Z,3.10
2023-05-09T12:42:32.274Z,2.72
2023-05-09T12:44:59.279Z,2.70
2023-05-09T12:47:31.009Z,2.40
2023-05-09T12:50:06.400Z,2.88
2023-05-09T12:52:34.759Z,2.92
2023-05-09T12:55:09.209Z,2.50
2023-05-09T12:57:36.027Z,2.85
2023-05-09T13:00:05.040Z,3.17
2023-05-09T13:02:40.214Z,2.65
2023-05-09T13:05:08.197Z,3.00
2023-05-09T13:08:04.168Z,2.47
2023-05-09T13:10:31.724Z,2.55
2023-05-09T13:12:58.381Z,2.55
2023-05-09T13:15:26.813Z,2.45
2023-05-09T13:17:54.153Z,2.55
2023-05-09T13:20:21.315Z,2.90
2023-05-09T13:22:48.002Z,3.28
2023-05-09T13:25:16.078Z,3.10
2023-05-09T13:27:42.859Z,2.67
2023-05-09T13:30:09.848Z,2.88
2023-05-09T13:32:39.577Z,3.30
2023-05-09T13:35:08.012Z,3.17
2023-05-09T13:37:35.286Z,2.83
2023-05-09T13:40:02.477Z,2.80
2023-05-09T13:42:28.936Z,3.10
2023-05-09T13:44:55.493Z,2.70
2023-05-09T13:47:22.216Z,3.20
2023-05-09T13:49:48.759Z,2.88
2023-05-09T13:52:16.420Z,2.88
2023-05-09T13:54:43.086Z,2.90
2023-05-09T13:57:11.246Z,2.72
2023-05-09T13:59:38.246Z,3.10
2023-05-09T14:02:05.060Z,2.45
2023-05-09T14:04:32.004Z,2.75
2023-05-09T14:06:59.862Z,2.70
2023-05-09T14:09:28.314Z,2.22
2023-05-09T14:11:55.563Z,2.88
2023-05-09T14:14:25.008Z,2.72
2023-05-09T14:16:52.075Z,2.53
2023-05-09T14:19:18.747Z,2.63
2023-05-09T14:21:47.309Z,2.20
2023-05-09T14:24:16.294Z,2.80
2023-05-09T14:26:43.298Z,2.88
2023-05-09T14:29:09.936Z,2.60
2023-05-09T14:31:36.981Z,2.63
2023-05-09T14:34:05.284Z,2.67
2023-05-09T14:36:34.883Z,2.85
2023-05-09T14:39:01.440Z,2.47
2023-05-09T14:41:28.078Z,2.97
2023-05-09T14:43:54.610Z,2.65
2023-05-09T14:46:21.322Z,2.28
2023-05-09T14:48:47.864Z,2.30
2023-05-09T14:51:14.554Z,3.10
2023-05-09T14:53:41.963Z,2.53
2023-05-09T14:56:10.461Z,2.20
2023-05-09T14:58:37.526Z,2.88
2023-05-09T15:01:04.695Z,2.70
2023-05-09T15:03:31.524Z,2.30
2023-05-09T15:05:58.683Z,2.47
2023-05-09T15:08:27.000Z,2.10
2023-05-09T15:10:53.593Z,2.50
2023-05-09T15:13:20.823Z,2.28
2023-05-09T15:15:47.795Z,2.05
2023-05-09T15:18:16.525Z,2.20
2023-05-09T15:20:43.796Z,2.53
2023-05-09T15:23:12.148Z,2.30
2023-05-09T15:25:42.316Z,2.38
2023-05-09T15:28:08.944Z,2.83
2023-05-09T15:30:38.339Z,2.55
2023-05-09T15:33:05.341Z,2.60
2023-05-09T15:35:31.922Z,1.85
2023-05-09T15:38:00.857Z,2.30
2023-05-09T15:40:28.187Z,2.10
2023-05-09T15:42:54.832Z,2.30
2023-05-09T15:45:22.826Z,2.45
2023-05-09T15:47:49.681Z,1.80
2023-05-09T15:50:16.605Z,2.00
2023-05-09T15:52:43.425Z,2.28
2023-05-09T15:55:10.613Z,2.20
2023-05-09T15:57:38.170Z,1.92
2023-05-09T16:00:05.555Z,2.15
2023-05-09T16:02:39.044Z,1.70
2023-05-09T16:05:06.198Z,1.80
2023-05-09T16:07:35.954Z,2.08
2023-05-09T16:10:02.850Z,1.63
2023-05-09T16:12:32.682Z,1.65
2023-05-09T16:15:06.556Z,1.60
2023-05-09T16:17:33.654Z,1.70
2023-05-09T16:20:00.610Z,1.90
2023-05-09T16:22:27.215Z,1.98
2023-05-09T16:24:55.188Z,1.83
2023-05-09T16:27:21.738Z,1.90
2023-05-09T16:29:48.452Z,1.80
2023-05-09T16:32:15.936Z,1.50
2023-05-09T16:34:42.515Z,1.70
2023-05-09T16:37:08.992Z,1.70
2023-05-09T16:39:35.456Z,1.50
2023-05-09T16:42:01.993Z,1.90
2023-05-09T16:44:29.604Z,1.92
2023-05-09T16:46:56.157Z,1.20
2023-05-09T16:49:22.838Z,1.75
2023-05-09T16:51:49.422Z,1.58
2023-05-09T16:54:16.016Z,1.48
2023-05-09T16:56:42.807Z,1.42
2023-05-09T16:59:09.365Z,1.73
2023-05-09T17:01:35.964Z,1.67
2023-05-09T17:04:04.795Z,1.70
2023-05-09T17:06:31.332Z,1.65
2023-05-09T17:08:58.244Z,2.05
2023-05-09T17:11:24.801Z,2.00
2023-05-09T17:13:51.596Z,2.10
2023-05-09T17:16:18.245Z,1.50
2023-05-09T17:18:47.762Z,1.90
2023-05-09T17:21:15.681Z,1.67
2023-05-09T17:23:42.425Z,1.75
2023-05-09T17:26:09.050Z,1.80
2023-05-09T17:28:35.545Z,1.60
2023-05-09T17:31:03.300Z,2.10
2023-05-09T17:33:30.070Z,1.65
2023-05-09T17:35:57.337Z,1.85
2023-05-09T17:38:23.852Z,1.60
2023-05-09T17:40:50.592Z,1.80
2023-05-09T17:43:18.423Z,1.80
2023-05-09T17:45:46.257Z,1.52
2023-05-09T17:48:13.510Z,1.73
2023-05-09T17:50:40.112Z,1.67
2023-05-09T17:53:08.745Z,1.90
2023-05-09T17:55:35.686Z,1.40
2023-05-09T17:58:02.250Z,1.63
2023-05-09T18:00:29.258Z,1.50
2023-05-09T18:02:57.817Z,1.50
2023-05-09T18:05:27.010Z,1.50
2023-05-09T18:07:53.651Z,1.75
2023-05-09T18:10:29.270Z,1.60
2023-05-09T18:12:56.271Z,1.40
2023-05-09T18:15:24.476Z,1.60
2023-05-09T18:17:51.052Z,1.40
2023-05-09T18:20:18.002Z,1.40
2023-05-09T18:22:44.789Z,1.67
2023-05-09T18:25:11.518Z,1.40
2023-05-09T18:27:38.394Z,1.35
2023-05-09T18:30:05.412Z,1.73
2023-05-09T18:32:32.487Z,1.52
2023-05-09T18:34:59.200Z,1.65
2023-05-09T18:37:26.140Z,1.48
2023-05-09T18:39:52.731Z,1.42
2023-05-09T18:42:21.338Z,1.20
2023-05-09T18:44:47.955Z,1.20
2023-05-09T18:47:15.368Z,1.63
2023-05-09T18:49:44.449Z,1.70
2023-05-09T18:52:11.084Z,1.17
2023-05-09T18:54:38.207Z,1.30
2023-05-09T18:57:04.869Z,1.42
2023-05-09T18:59:31.825Z,1.90
2023-05-09T19:01:58.339Z,1.77
2023-05-09T19:04:25.355Z,1.50
2023-05-09T19:06:51.974Z,1.35
2023-05-09T19:09:18.863Z,1.30
2023-05-09T19:11:45.450Z,1.50
2023-05-09T19:14:12.052Z,1.30
2023-05-09T19:16:38.571Z,1.50
2023-05-09T19:19:05.221Z,1.20
2023-05-09T19:21:31.826Z,1.52
2023-05-09T19:23:58.369Z,1.45
2023-05-09T19:26:25.045Z,1.65
2023-05-09T19:28:51.631Z,1.60
2023-05-09T19:31:20.201Z,1.38
2023-05-09T19:33:47.891Z,1.55
2023-05-09T19:36:14.389Z,1.48
2023-05-09T19:38:41.060Z,1.50
2023-05-09T19:41:07.699Z,1.50
2023-05-09T19:43:35.645Z,1.40
2023-05-09T19:46:02.389Z,1.25
2023-05-09T19:48:28.963Z,1.33
2023-05-09T19:50:58.542Z,1.55
2023-05-09T19:53:25.357Z,1.40
2023-05-09T19:55:52.892Z,1.55
2023-05-09T19:58:19.649Z,1.77
2023-05-09T20:00:46.859Z,1.42
2023-05-09T20:03:13.565Z,1.63
2023-05-09T20:05:40.272Z,1.67
2023-05-09T20:08:07.015Z,1.48
2023-05-09T20:10:34.200Z,1.70
2023-05-09T20:13:01.215Z,1.17
2023-05-09T20:15:27.928Z,1.63
2023-05-09T20:17:54.647Z,1.73
2023-05-09T20:20:21.318Z,1.35
2023-05-09T20:22:47.937Z,1.27
2023-05-09T20:25:15.328Z,1.65
2023-05-09T20:27:41.975Z,1.40
2023-05-09T20:30:09.027Z,1.55
2023-05-09T20:32:35.534Z,1.60
2023-05-09T20:35:02.447Z,1.58
2023-05-09T20:37:29.036Z,1.63
2023-05-09T20:39:55.685Z,1.92
2023-05-09T20:42:23.269Z,1.80
2023-05-09T20:44:51.596Z,1.48
2023-05-09T20:47:18.465Z,1.60
2023-05-09T20:49:44.990Z,1.98
2023-05-09T20:52:12.596Z,1.92
2023-05-09T20:54:39.083Z,1.50
2023-05-09T20:57:05.826Z,1.70
2023-05-09T20:59:32.360Z,1.95
2023-05-09T21:01:59.038Z,1.58
2023-05-09T21:04:25.754Z,1.80
2023-05-09T21:06:52.516Z,1.60
2023-05-09T21:09:18.976Z,1.95
2023-05-09T21:11:46.083Z,1.77
2023-05-09T21:14:12.645Z,1.83
2023-05-09T21:16:39.256Z,2.00
2023-05-09T21:19:06.839Z,1.63
2023-05-09T21:21:34.549Z,2.00
2023-05-09T21:24:04.191Z,2.05
2023-05-09T21:26:30.858Z,1.90
2023-05-09T21:28:57.395Z,2.10
2023-05-09T21:31:23.946Z,2.20
2023-05-09T21:33:50.729Z,2.00
2023-05-09T21:36:17.284Z,2.05
2023-05-09T21:38:43.942Z,1.85
2023-05-09T21:41:10.456Z,2.63
2023-05-09T21:43:37.709Z,1.98
2023-05-09T21:46:05.913Z,2.20
2023-05-09T21:48:32.810Z,1.90
2023-05-09T21:51:02.200Z,2.08
2023-05-09T21:53:28.836Z,2.33
2023-05-09T21:55:55.291Z,2.13
2023-05-09T21:58:21.855Z,2.50
2023-05-09T22:00:48.489Z,2.38
2023-05-09T22:03:15.091Z,2.35
2023-05-09T22:05:41.687Z,2.40
2023-05-09T22:08:08.230Z,2.17
2023-05-09T22:10:34.720Z,2.65
2023-05-09T22:13:01.418Z,2.10
2023-05-09T22:15:28.336Z,2.90
2023-05-09T22:17:54.860Z,2.42
2023-05-09T22:20:21.668Z,2.70
2023-05-09T22:22:48.176Z,2.47
2023-05-09T22:25:15.095Z,2.40
2023-05-09T22:27:41.642Z,2.38
2023-05-09T22:30:09.263Z,2.85
2023-05-09T22:32:35.828Z,2.47
2023-05-09T22:35:02.786Z,2.60
2023-05-09T22:37:29.310Z,2.88
2023-05-09T22:39:55.876Z,2.90
2023-05-09T22:42:22.527Z,2.47
2023-05-09T22:44:49.844Z,2.83
2023-05-09T22:47:16.372Z,2.70
2023-05-09T22:49:45.119Z,2.58
2023-05-09T22:52:12.510Z,2.72
2023-05-09T22:54:38.965Z,2.80
2023-05-09T22:57:05.530Z,2.40
2023-05-09T22:59:32.117Z,2.90
2023-05-09T23:01:59.023Z,2.50
2023-05-09T23:04:25.517Z,2.65
2023-05-09T23:06:52.094Z,2.75
2023-05-09T23:09:18.617Z,3.08
2023-05-09T23:11:45.155Z,2.72
2023-05-09T23:14:12.293Z,3.17
2023-05-09T23:16:38.912Z,2.33
2023-05-09T23:19:05.362Z,2.85
2023-05-09T23:21:32.590Z,2.65
2023-05-09T23:23:59.494Z,2.50
2023-05-09T23:26:26.168Z,3.00
2023-05-09T23:28:55.100Z,2.70
2023-05-09T23:31:21.718Z,2.92
2023-05-09T23:33:48.217Z,2.80
2023-05-09T23:36:14.812Z,2.80
2023-05-09T23:38:41.403Z,2.92
2023-05-09T23:41:07.910Z,2.85
2023-05-09T23:43:34.479Z,2.72
2023-05-09T23:46:01.063Z,2.60
2023-05-09T23:48:27.597Z,2.83
2023-05-09T23:50:54.498Z,2.65
2023-05-09T23:53:21.075Z,3.45
2023-05-09T23:55:47.666Z,2.65
2023-05-09T23:58:14.184Z,3.05
